createdAt,value
2023-04-04T00:00:20.812Z,-1.70
2023-04-04T00:02:48.631Z,-1.70
2023-04-04T00:05:15.618Z,-1.70
2023-04-04T00:07:42.417Z,-1.80
2023-04-04T00:10:09.735Z,-1.80
2023-04-04T00:12:36.615Z,-1.80
2023-04-04T00:15:04.033Z,-1.80
2023-04-04T00:17:30.890Z,-1.80
2023-04-04T00:19:57.990Z,-1.90
2023-04-04T00:22:24.796Z,-1.90
2023-04-04T00:24:51.657Z,-2.00
2023-04-04T00:27:18.413Z,-2.00
2023-04-04T00:29:45.671Z,-2.00
2023-04-04T00:32:13.132Z,-1.90
2023-04-04T00:34:39.924Z,-1.90
2023-04-04T00:37:07.442Z,-1.80
2023-04-04T00:39:34.460Z,-1.70
2023-04-04T00:42:01.914Z,-1.70
2023-04-04T00:44:31.509Z,-1.70
2023-04-04T00:46:58.463Z,-1.70
2023-04-04T00:49:25.422Z,-1.70
2023-04-04T00:51:52.723Z,-1.80
2023-04-04T00:54:19.732Z,-1.70
2023-04-04T00:56:47.200Z,-1.80
2023-04-04T00:59:16.110Z,-1.70
2023-04-04T01:01:42.948Z,-1.60
2023-04-04T01:04:10.121Z,-1.60
2023-04-04T01:06:36.864Z,-1.70
2023-04-04T01:09:03.943Z,-1.80
2023-04-04T01:11:31.236Z,-1.90
2023-04-04T01:13:58.110Z,-2.00
2023-04-04T01:16:25.062Z,-2.00
2023-04-04T01:18:53.792Z,-2.00
2023-04-04T01:21:22.902Z,-2.00
2023-04-04T01:24:05.957Z,-2.00
2023-04-04T01:26:47.524Z,-2.10
2023-04-04T01:29:14.584Z,-2.10
2023-04-04T01:31:48.166Z,-2.00
2023-04-04T01:34:28.510Z,-2.00
2023-04-04T01:37:08.090Z,-2.10
2023-04-04T01:39:53.065Z,-2.00
2023-04-04T01:42:22.263Z,-2.10
2023-04-04T01:44:59.400Z,-2.20
2023-04-04T01:47:39.114Z,-2.20
2023-04-04T01:50:08.058Z,-2.30
2023-04-04T01:52:35.633Z,-2.20
2023-04-04T01:55:03.518Z,-2.30
2023-04-04T01:57:31.513Z,-2.40
2023-04-04T01:59:58.324Z,-2.40
2023-04-04T02:02:25.592Z,-2.30
2023-04-04T02:04:52.464Z,-2.30
2023-04-04T02:07:19.688Z,-2.40
2023-04-04T02:09:47.015Z,-2.40
2023-04-04T02:12:13.828Z,-2.50
2023-04-04T02:14:41.302Z,-2.50
2023-04-04T02:17:08.180Z,-2.50
2023-04-04T02:19:35.686Z,-2.50
2023-04-04T02:22:02.718Z,-2.50
2023-04-04T02:24:29.829Z,-2.50
2023-04-04T02:26:56.639Z,-2.60
2023-04-04T02:29:23.508Z,-2.60
2023-04-04T02:31:50.874Z,-2.60
2023-04-04T02:34:17.674Z,-2.60
2023-04-04T02:36:44.688Z,-2.60
2023-04-04T02:39:11.691Z,-2.60
2023-04-04T02:41:41.530Z,-2.70
2023-04-04T02:44:09.808Z,-2.70
2023-04-04T02:46:38.831Z,-2.70
2023-04-04T02:49:08.886Z,-2.70
2023-04-04T02:51:38.817Z,-2.70
2023-04-04T02:54:06.248Z,-2.80
2023-04-04T02:56:39.363Z,-2.80
2023-04-04T02:59:06.424Z,-2.80
2023-04-04T03:01:33.509Z,-2.90
2023-04-04T03:04:04.646Z,-2.90
2023-04-04T03:06:33.739Z,-2.90
2023-04-04T03:09:00.993Z,-2.90
2023-04-04T03:11:28.389Z,-3.00
2023-04-04T03:13:56.105Z,-3.00
2023-04-04T03:16:32.071Z,-3.00
2023-04-04T03:18:59.034Z,-3.10
2023-04-04T03:21:26.133Z,-3.20
2023-04-04T03:23:56.458Z,-3.30
2023-04-04T03:26:24.571Z,-3.30
2023-04-04T03:28:54.104Z,-3.40
2023-04-04T03:31:23.401Z,-3.40
2023-04-04T03:33:50.500Z,-3.50
2023-04-04T03:36:17.351Z,-3.60
2023-04-04T03:38:48.565Z,-3.70
2023-04-04T03:41:15.572Z,-3.70
2023-04-04T03:43:42.466Z,-3.60
2023-04-04T03:46:09.528Z,-3.60
2023-04-04T03:48:37.328Z,-3.70
2023-04-04T03:51:07.743Z,-3.70
2023-04-04T03:53:36.545Z,-3.70
2023-04-04T03:56:03.745Z,-3.70
2023-04-04T03:58:30.911Z,-3.70
2023-04-04T04:00:57.753Z,-3.70
2023-04-04T04:03:28.082Z,-3.70
2023-04-04T04:05:55.419Z,-3.80
2023-04-04T04:08:23.943Z,-3.80
2023-04-04T04:10:52.315Z,-3.80
2023-04-04T04:13:19.075Z,-3.80
2023-04-04T04:15:46.188Z,-3.90
2023-04-04T04:18:18.288Z,-3.80
2023-04-04T04:20:45.747Z,-3.80
2023-04-04T04:23:12.559Z,-3.80
2023-04-04T04:25:40.304Z,-3.80
2023-04-04T04:28:16.989Z,-3.80
2023-04-04T04:30:44.352Z,-3.70
2023-04-04T04:33:13.263Z,-3.70
2023-04-04T04:35:52.145Z,-3.70
2023-04-04T04:38:20.776Z,-3.70
2023-04-04T04:40:47.782Z,-3.70
2023-04-04T04:43:29.413Z,-3.70
2023-04-04T04:45:56.652Z,-3.70
2023-04-04T04:48:23.563Z,-3.70
2023-04-04T04:50:54.740Z,-3.80
2023-04-04T04:53:37.268Z,-3.80
2023-04-04T04:56:05.393Z,-3.70
2023-04-04T04:58:33.859Z,-3.80
2023-04-04T05:01:03.044Z,-3.70
2023-04-04T05:03:37.389Z,-3.70
2023-04-04T05:06:07.536Z,-3.70
2023-04-04T05:08:35.927Z,-3.70
2023-04-04T05:11:17.723Z,-3.70
2023-04-04T05:13:45.071Z,-3.60
2023-04-04T05:16:13.169Z,-3.50
2023-04-04T05:18:42.588Z,-3.40
2023-04-04T05:21:11.263Z,-3.30
2023-04-04T05:23:38.662Z,-3.30
2023-04-04T05:26:06.497Z,-3.10
2023-04-04T05:28:37.449Z,-2.10
2023-04-04T05:31:06.413Z,-1.20
2023-04-04T05:33:35.920Z,-0.30
2023-04-04T05:36:23.090Z,0.30
2023-04-04T05:38:57.818Z,0.60
2023-04-04T05:41:29.639Z,0.20
2023-04-04T05:44:02.977Z,0.30
2023-04-04T05:46:30.541Z,0.10
2023-04-04T05:48:57.438Z,-0.10
2023-04-04T05:51:25.445Z,-0.30
2023-04-04T05:54:00.356Z,0.50
2023-04-04T05:56:32.480Z,1.60
2023-04-04T05:59:01.604Z,2.50
2023-04-04T06:01:32.426Z,3.00
2023-04-04T06:04:02.322Z,3.60
2023-04-04T06:06:29.890Z,4.30
2023-04-04T06:08:56.861Z,4.70
2023-04-04T06:11:23.722Z,4.80
2023-04-04T06:13:55.120Z,4.90
2023-04-04T06:16:23.384Z,4.40
2023-04-04T06:18:50.526Z,5.20
2023-04-04T06:21:17.299Z,5.70
2023-04-04T06:23:44.586Z,6.00
2023-04-04T06:26:12.664Z,6.50
2023-04-04T06:28:49.429Z,6.40
2023-04-04T06:31:19.194Z,5.90
2023-04-04T06:33:48.162Z,5.60
2023-04-04T06:36:16.680Z,5.70
2023-04-04T06:38:43.539Z,5.60
2023-04-04T06:41:16.929Z,6.30
2023-04-04T06:43:48.655Z,6.40
2023-04-04T06:46:15.784Z,6.20
2023-04-04T06:48:42.608Z,6.70
2023-04-04T06:51:09.662Z,6.70
2023-04-04T06:53:39.731Z,7.00
2023-04-04T06:56:07.064Z,7.60
2023-04-04T06:58:34.536Z,7.70
2023-04-04T07:01:02.505Z,7.40
2023-04-04T07:03:29.423Z,7.60
2023-04-04T07:05:56.179Z,7.30
2023-04-04T07:08:23.043Z,8.00
2023-04-04T07:10:49.851Z,8.30
2023-04-04T07:13:16.790Z,6.00
2023-04-04T07:15:48.876Z,5.80
2023-04-04T07:18:16.502Z,5.00
2023-04-04T07:20:43.934Z,4.70
2023-04-04T07:23:13.820Z,3.70
2023-04-04T07:25:41.472Z,3.70
2023-04-04T07:28:12.879Z,3.20
2023-04-04T07:30:40.665Z,3.20
2023-04-04T07:33:08.062Z,2.80
2023-04-04T07:35:35.480Z,2.80
2023-04-04T07:38:03.087Z,2.70
2023-04-04T07:40:30.010Z,1.70
2023-04-04T07:42:56.969Z,1.40
2023-04-04T07:45:23.913Z,2.50
2023-04-04T07:47:51.120Z,3.40
2023-04-04T07:50:18.364Z,3.90
2023-04-04T07:52:51.493Z,4.50
2023-04-04T07:55:19.610Z,3.40
2023-04-04T07:57:47.216Z,3.60
2023-04-04T08:00:14.755Z,4.40
2023-04-04T08:02:44.443Z,5.20
2023-04-04T08:05:11.498Z,5.00
2023-04-04T08:07:38.260Z,6.00
2023-04-04T08:10:06.254Z,6.50
2023-04-04T08:12:33.185Z,6.50
2023-04-04T08:15:00.027Z,6.20
2023-04-04T08:17:27.081Z,4.90
2023-04-04T08:19:54.312Z,4.70
2023-04-04T08:22:21.030Z,5.80
2023-04-04T08:24:47.777Z,7.10
2023-04-04T08:27:16.029Z,7.20
2023-04-04T08:29:42.891Z,7.40
2023-04-04T08:32:16.823Z,8.10
2023-04-04T08:34:46.598Z,8.00
2023-04-04T08:37:13.556Z,7.60
2023-04-04T08:39:40.310Z,7.70
2023-04-04T08:42:07.735Z,8.00
2023-04-04T08:44:35.581Z,6.00
2023-04-04T08:47:09.174Z,5.80
2023-04-04T08:49:38.948Z,6.70
2023-04-04T08:52:07.493Z,6.30
2023-04-04T08:54:41.260Z,6.10
2023-04-04T08:57:08.510Z,5.70
2023-04-04T08:59:35.939Z,5.90
2023-04-04T09:02:19.793Z,5.60
2023-04-04T09:05:02.313Z,6.80
2023-04-04T09:07:31.135Z,7.30
2023-04-04T09:09:59.172Z,7.60
2023-04-04T09:12:26.614Z,8.20
2023-04-04T09:14:55.149Z,8.30
2023-04-04T09:17:21.926Z,7.20
2023-04-04T09:19:48.843Z,6.50
2023-04-04T09:22:17.217Z,6.90
2023-04-04T09:24:44.245Z,7.70
2023-04-04T09:27:12.338Z,8.40
2023-04-04T09:29:40.225Z,8.70
2023-04-04T09:32:17.186Z,7.50
2023-04-04T09:34:47.942Z,8.10
2023-04-04T09:37:17.737Z,8.10
2023-04-04T09:39:45.189Z,8.60
2023-04-04T09:42:12.625Z,8.90
2023-04-04T09:44:39.458Z,8.80
2023-04-04T09:47:30.505Z,9.20
2023-04-04T09:49:59.359Z,8.70
2023-04-04T09:52:26.308Z,7.80
2023-04-04T09:55:01.396Z,7.90
2023-04-04T09:57:33.040Z,8.50
2023-04-04T10:00:07.827Z,9.30
2023-04-04T10:02:41.164Z,9.10
2023-04-04T10:05:10.324Z,9.20
2023-04-04T10:07:39.946Z,9.10
2023-04-04T10:10:08.935Z,8.50
2023-04-04T10:12:37.537Z,8.30
2023-04-04T10:15:04.801Z,8.30
2023-04-04T10:17:36.496Z,8.20
2023-04-04T10:20:06.423Z,8.30
2023-04-04T10:22:35.631Z,8.50
2023-04-04T10:25:04.245Z,7.40
2023-04-04T10:27:31.377Z,7.50
2023-04-04T10:29:58.274Z,7.80
2023-04-04T10:32:51.580Z,8.40
2023-04-04T10:35:22.667Z,8.70
2023-04-04T10:37:58.597Z,9.00
2023-04-04T10:40:31.346Z,9.40
2023-04-04T10:43:06.221Z,9.50
2023-04-04T10:45:34.157Z,8.90
2023-04-04T10:48:03.378Z,8.50
2023-04-04T10:50:34.751Z,8.90
2023-04-04T10:53:03.674Z,8.10
2023-04-04T10:55:32.428Z,8.60
2023-04-04T10:58:01.082Z,9.00
2023-04-04T11:00:27.917Z,8.60
2023-04-04T11:03:02.574Z,8.90
2023-04-04T11:05:46.731Z,9.20
2023-04-04T11:08:22.159Z,9.10
2023-04-04T11:10:50.403Z,9.10
2023-04-04T11:13:31.971Z,9.60
2023-04-04T11:16:15.184Z,9.00
2023-04-04T11:18:42.259Z,9.20
2023-04-04T11:21:18.485Z,9.20
2023-04-04T11:23:51.643Z,9.50
2023-04-04T11:26:30.902Z,9.10
2023-04-04T11:29:03.609Z,9.70
2023-04-04T11:31:40.520Z,8.90
2023-04-04T11:34:09.402Z,7.90
2023-04-04T11:36:39.840Z,7.90
2023-04-04T11:39:12.958Z,8.00
2023-04-04T11:41:52.927Z,7.70
2023-04-04T11:44:22.458Z,8.60
2023-04-04T11:46:55.130Z,8.10
2023-04-04T11:49:30.306Z,7.50
2023-04-04T11:51:57.978Z,8.00
2023-04-04T11:54:24.843Z,9.00
2023-04-04T11:56:51.911Z,9.80
2023-04-04T11:59:23.000Z,8.70
2023-04-04T12:01:50.082Z,8.30
2023-04-04T12:04:20.405Z,8.20
2023-04-04T12:06:51.694Z,7.30
2023-04-04T12:09:20.257Z,7.80
2023-04-04T12:11:47.893Z,8.30
2023-04-04T12:14:25.773Z,7.50
2023-04-04T12:16:55.530Z,7.10
2023-04-04T12:19:27.746Z,8.10
2023-04-04T12:21:57.301Z,9.10
2023-04-04T12:24:24.247Z,9.00
2023-04-04T12:26:53.013Z,9.50
2023-04-04T12:29:22.487Z,8.80
2023-04-04T12:31:51.099Z,9.10
2023-04-04T12:34:25.792Z,8.80
2023-04-04T12:36:53.433Z,9.20
2023-04-04T12:39:22.141Z,9.30
2023-04-04T12:42:04.120Z,9.50
2023-04-04T12:44:36.525Z,8.40
2023-04-04T12:47:09.316Z,9.20
2023-04-04T12:49:40.400Z,9.30
2023-04-04T12:52:16.190Z,9.70
2023-04-04T12:54:44.497Z,9.60
2023-04-04T12:57:17.307Z,9.90
2023-04-04T12:59:47.336Z,9.50
2023-04-04T13:02:19.407Z,9.90
2023-04-04T13:04:47.462Z,10.20
2023-04-04T13:07:29.515Z,10.20
2023-04-04T13:10:04.819Z,9.90
2023-04-04T13:13:00.989Z,10.00
2023-04-04T13:15:49.535Z,9.80
2023-04-04T13:18:22.587Z,9.80
2023-04-04T13:20:50.719Z,10.30
2023-04-04T13:23:18.062Z,9.40
2023-04-04T13:25:44.982Z,9.40
2023-04-04T13:28:12.115Z,9.70
2023-04-04T13:30:43.566Z,9.70
2023-04-04T13:33:11.238Z,9.90
2023-04-04T13:35:39.024Z,9.70
2023-04-04T13:38:06.937Z,9.40
2023-04-04T13:40:33.790Z,9.00
2023-04-04T13:43:00.643Z,8.80
2023-04-04T13:45:27.451Z,8.90
2023-04-04T13:47:54.314Z,9.10
2023-04-04T13:50:22.199Z,9.40
2023-04-04T13:52:50.344Z,9.20
2023-04-04T13:55:17.365Z,8.30
2023-04-04T13:57:44.118Z,8.50
2023-04-04T14:00:11.378Z,8.90
2023-04-04T14:02:38.599Z,9.20
2023-04-04T14:05:08.815Z,9.50
2023-04-04T14:07:38.476Z,9.70
2023-04-04T14:10:05.767Z,10.00
2023-04-04T14:12:32.599Z,10.10
2023-04-04T14:14:59.317Z,9.60
2023-04-04T14:17:26.346Z,9.50
2023-04-04T14:19:53.099Z,9.50
2023-04-04T14:22:20.009Z,9.30
2023-04-04T14:24:46.781Z,9.30
2023-04-04T14:27:13.574Z,8.90
2023-04-04T14:29:40.473Z,9.20
2023-04-04T14:32:07.357Z,8.50
2023-04-04T14:34:34.065Z,8.80
2023-04-04T14:37:00.917Z,9.10
2023-04-04T14:39:27.940Z,9.10
2023-04-04T14:41:54.699Z,9.10
2023-04-04T14:44:21.903Z,9.10
2023-04-04T14:46:51.707Z,9.30
2023-04-04T14:49:18.808Z,8.90
2023-04-04T14:51:45.814Z,8.90
2023-04-04T14:54:12.544Z,8.70
2023-04-04T14:56:39.288Z,8.80
2023-04-04T14:59:06.976Z,9.00
2023-04-04T15:01:34.094Z,9.30
2023-04-04T15:04:00.942Z,9.20
2023-04-04T15:06:27.933Z,9.10
2023-04-04T15:08:54.676Z,9.00
2023-04-04T15:11:21.490Z,9.00
2023-04-04T15:13:48.309Z,8.60
2023-04-04T15:16:17.759Z,8.30
2023-04-04T15:18:44.572Z,8.50
2023-04-04T15:21:11.518Z,8.50
2023-04-04T15:23:39.042Z,8.70
2023-04-04T15:26:06.542Z,8.60
2023-04-04T15:28:33.687Z,8.60
2023-04-04T15:31:03.609Z,8.50
2023-04-04T15:33:30.793Z,8.40
2023-04-04T15:35:57.641Z,8.00
2023-04-04T15:38:24.404Z,7.80
2023-04-04T15:40:51.286Z,7.50
2023-04-04T15:43:18.060Z,6.90
2023-04-04T15:45:46.613Z,7.10
2023-04-04T15:48:13.602Z,7.30
2023-04-04T15:50:40.581Z,7.50
2023-04-04T15:53:07.501Z,7.50
2023-04-04T15:55:34.803Z,7.60
2023-04-04T15:58:01.584Z,7.70
2023-04-04T16:00:28.909Z,7.90
2023-04-04T16:03:02.334Z,7.70
2023-04-04T16:05:29.198Z,7.50
2023-04-04T16:07:56.514Z,7.10
2023-04-04T16:10:23.296Z,7.10
2023-04-04T16:12:50.003Z,7.00
2023-04-04T16:15:17.379Z,7.10
2023-04-04T16:17:44.187Z,7.00
2023-04-04T16:20:11.953Z,7.00
2023-04-04T16:22:38.850Z,6.90
2023-04-04T16:25:08.526Z,7.00
2023-04-04T16:27:36.922Z,6.70
2023-04-04T16:30:03.947Z,6.70
2023-04-04T16:32:31.876Z,6.20
2023-04-04T16:34:58.672Z,6.30
2023-04-04T16:37:25.694Z,6.20
2023-04-04T16:39:52.885Z,6.10
2023-04-04T16:42:19.832Z,5.90
2023-04-04T16:44:47.599Z,5.70
2023-04-04T16:47:14.775Z,5.60
2023-04-04T16:49:41.628Z,5.50
2023-04-04T16:52:10.633Z,5.40
2023-04-04T16:54:38.020Z,5.20
2023-04-04T16:57:05.409Z,4.90
2023-04-04T16:59:32.624Z,4.80
2023-04-04T17:01:59.450Z,4.70
2023-04-04T17:04:26.311Z,4.60
2023-04-04T17:06:53.170Z,4.50
2023-04-04T17:09:20.295Z,4.50
2023-04-04T17:11:47.123Z,4.40
2023-04-04T17:14:14.571Z,4.30
2023-04-04T17:16:43.175Z,4.20
2023-04-04T17:19:10.127Z,4.10
2023-04-04T17:21:37.082Z,4.00
2023-04-04T17:24:04.056Z,3.90
2023-04-04T17:26:31.097Z,3.80
2023-04-04T17:28:57.870Z,3.70
2023-04-04T17:31:24.862Z,3.70
2023-04-04T17:33:51.844Z,3.60
2023-04-04T17:36:19.768Z,3.50
2023-04-04T17:38:47.352Z,3.40
2023-04-04T17:41:16.326Z,3.40
2023-04-04T17:43:43.421Z,3.30
2023-04-04T17:46:10.302Z,3.20
2023-04-04T17:48:37.301Z,3.10
2023-04-04T17:51:06.962Z,3.10
2023-04-04T17:53:35.099Z,3.00
2023-04-04T17:56:01.961Z,2.90
2023-04-04T17:58:28.776Z,2.70
2023-04-04T18:00:57.684Z,2.70
2023-04-04T18:03:24.864Z,2.60
2023-04-04T18:05:52.736Z,2.60
2023-04-04T18:08:19.831Z,2.50
2023-04-04T18:10:46.593Z,2.50
2023-04-04T18:13:13.376Z,2.40
2023-04-04T18:15:41.108Z,2.40
2023-04-04T18:18:08.317Z,2.30
2023-04-04T18:20:38.341Z,2.30
2023-04-04T18:23:05.195Z,2.20
2023-04-04T18:25:33.167Z,2.20
2023-04-04T18:28:01.859Z,2.10
2023-04-04T18:30:28.902Z,2.10
2023-04-04T18:32:57.457Z,2.00
2023-04-04T18:35:24.502Z,2.00
2023-04-04T18:37:51.632Z,1.90
2023-04-04T18:40:18.555Z,1.80
2023-04-04T18:42:45.557Z,1.80
2023-04-04T18:45:12.505Z,1.70
2023-04-04T18:47:40.169Z,1.60
2023-04-04T18:50:08.253Z,1.50
2023-04-04T18:52:36.296Z,1.40
2023-04-04T18:55:04.717Z,1.20
2023-04-04T18:57:33.262Z,1.10
2023-04-04T19:00:00.554Z,1.10
2023-04-04T19:02:27.342Z,1.00
2023-04-04T19:04:57.676Z,1.00
2023-04-04T19:07:27.268Z,1.00
2023-04-04T19:09:55.407Z,1.00
2023-04-04T19:12:22.938Z,0.90
2023-04-04T19:14:49.700Z,0.80
2023-04-04T19:17:18.111Z,0.80
2023-04-04T19:19:44.899Z,0.80
2023-04-04T19:22:11.855Z,0.80
2023-04-04T19:24:42.289Z,0.80
2023-04-04T19:27:09.594Z,0.70
2023-04-04T19:29:36.897Z,0.60
2023-04-04T19:32:16.592Z,0.60
2023-04-04T19:34:44.519Z,0.30
2023-04-04T19:37:12.175Z,0.10
2023-04-04T19:39:39.406Z,0.10
2023-04-04T19:42:07.773Z,0.10
2023-04-04T19:44:38.680Z,0.00
2023-04-04T19:47:09.490Z,-0.10
2023-04-04T19:49:38.103Z,-0.10
2023-04-04T19:52:06.119Z,-0.20
2023-04-04T19:54:38.992Z,-0.30
2023-04-04T19:57:18.660Z,-0.40
2023-04-04T20:00:01.674Z,-0.60
2023-04-04T20:02:34.546Z,-0.70
2023-04-04T20:05:01.732Z,-0.90
2023-04-04T20:07:28.957Z,-0.90
2023-04-04T20:09:56.258Z,-0.80
2023-04-04T20:12:24.540Z,-0.90
2023-04-04T20:14:53.638Z,-1.00
2023-04-04T20:17:20.629Z,-1.00
2023-04-04T20:19:48.408Z,-0.70
2023-04-04T20:22:16.820Z,-0.60
2023-04-04T20:24:46.703Z,-0.60
2023-04-04T20:27:23.616Z,-0.70
2023-04-04T20:29:53.232Z,-0.90
2023-04-04T20:32:20.024Z,-1.10
2023-04-04T20:34:49.758Z,-1.20
2023-04-04T20:37:26.011Z,-1.40
2023-04-04T20:39:58.821Z,-1.40
2023-04-04T20:42:41.810Z,-1.40
2023-04-04T20:45:08.525Z,-1.50
2023-04-04T20:47:51.679Z,-1.60
2023-04-04T20:50:20.572Z,-1.70
2023-04-04T20:52:57.298Z,-1.90
2023-04-04T20:55:26.445Z,-2.00
2023-04-04T20:57:56.812Z,-2.10
2023-04-04T21:00:29.747Z,-2.20
2023-04-04T21:02:58.718Z,-2.30
2023-04-04T21:05:34.921Z,-2.40
2023-04-04T21:08:02.692Z,-2.30
2023-04-04T21:10:29.408Z,-2.30
2023-04-04T21:13:01.159Z,-2.40
2023-04-04T21:15:30.635Z,-2.40
2023-04-04T21:18:06.475Z,-2.30
2023-04-04T21:20:46.120Z,-2.30
2023-04-04T21:23:30.472Z,-2.40
2023-04-04T21:26:04.701Z,-2.30
2023-04-04T21:28:39.059Z,-2.30
2023-04-04T21:31:14.509Z,-2.20
2023-04-04T21:33:46.264Z,-2.20
2023-04-04T21:36:33.536Z,-2.10
2023-04-04T21:39:02.237Z,-2.20
2023-04-04T21:41:33.558Z,-2.30
2023-04-04T21:44:02.334Z,-2.40
2023-04-04T21:46:32.287Z,-2.60
2023-04-04T21:49:00.872Z,-2.60
2023-04-04T21:51:28.090Z,-2.70
2023-04-04T21:53:55.544Z,-2.70
2023-04-04T21:56:27.062Z,-2.70
2023-04-04T21:58:54.746Z,-2.60
2023-04-04T22:01:21.884Z,-2.60
2023-04-04T22:03:48.749Z,-2.60
2023-04-04T22:06:16.027Z,-2.60
2023-04-04T22:08:43.262Z,-2.60
2023-04-04T22:11:13.636Z,-2.60
2023-04-04T22:13:42.940Z,-2.60
2023-04-04T22:16:15.977Z,-2.70
2023-04-04T22:18:47.596Z,-2.70
2023-04-04T22:21:15.600Z,-2.70
2023-04-04T22:23:42.794Z,-2.80
2023-04-04T22:26:13.730Z,-2.80
2023-04-04T22:28:42.327Z,-2.90
2023-04-04T22:31:09.462Z,-3.00
2023-04-04T22:33:36.348Z,-3.10
2023-04-04T22:36:03.548Z,-3.10
2023-04-04T22:38:30.433Z,-3.10
2023-04-04T22:40:58.366Z,-3.10
2023-04-04T22:43:25.934Z,-3.10
2023-04-04T22:45:53.254Z,-3.10
2023-04-04T22:48:24.020Z,-3.10
2023-04-04T22:50:55.643Z,-3.00
2023-04-04T22:53:24.842Z,-3.00
2023-04-04T22:55:53.349Z,-2.90
2023-04-04T22:58:21.641Z,-2.90
2023-04-04T23:00:48.954Z,-2.90
2023-04-04T23:03:16.149Z,-3.00
2023-04-04T23:05:43.129Z,-3.00
2023-04-04T23:08:10.330Z,-3.00
2023-04-04T23:10:37.202Z,-3.10
2023-04-04T23:13:04.038Z,-3.10
2023-04-04T23:15:33.156Z,-3.10
2023-04-04T23:17:59.963Z,-3.20
2023-04-04T23:20:27.966Z,-3.30
2023-04-04T23:22:54.792Z,-3.20
2023-04-04T23:25:21.502Z,-3.30
2023-04-04T23:27:48.216Z,-3.40
2023-04-04T23:30:15.377Z,-3.50
2023-04-04T23:32:42.271Z,-3.50
2023-04-04T23:35:09.673Z,-3.60
2023-04-04T23:37:36.817Z,-3.70
2023-04-04T23:40:05.347Z,-3.70
2023-04-04T23:42:32.205Z,-3.60
2023-04-04T23:45:01.148Z,-3.60
2023-04-04T23:47:28.601Z,-3.50
2023-04-04T23:49:55.610Z,-3.50
2023-04-04T23:52:22.509Z,-3.50
2023-04-04T23:54:49.435Z,-3.40
2023-04-04T23:57:16.571Z,-3.40
2023-04-04T23:59:43.358Z,-3.40
